sensor_id;sensor_type;location;lat;lon;timestamp;P1;durP1;ratioP1;P2;durP2;ratioP2
44120;SDS011;29783;52.504;13.478;2023-04-15T00:01:04;45.20;;;37.75;;
44120;SDS011;29783;52.504;13.478;2023-04-15T00:03:30;45.70;;;37.00;;
44120;SDS011;29783;52.504;13.478;2023-04-15T00:05:56;49.40;;;40.20;;
44120;SDS011;29783;52.504;13.478;2023-04-15T00:08:22;45.22;;;37.70;;
44120;SDS011;29783;52.504;13.478;2023-04-15T00:10:49;47.03;;;39.45;;
44120;SDS011;29783;52.504;13.478;2023-04-15T00:13:16;45.40;;;37.35;;
44120;SDS011;29783;52.504;13.478;2023-04-15T00:15:42;48.15;;;39.00;;
44120;SDS011;29783;52.504;13.478;2023-04-15T00:18:08;47.55;;;37.88;;
44120;SDS011;29783;52.504;13.478;2023-04-15T00:20:34;48.80;;;39.35;;
44120;SDS011;29783;52.504;13.478;2023-04-15T00:23:01;50.47;;;41.03;;
44120;SDS011;29783;52.504;13.478;2023-04-15T00:25:30;54.35;;;42.15;;
44120;SDS011;29783;52.504;13.478;2023-04-15T00:27:56;52.83;;;41.40;;
44120;SDS011;29783;52.504;13.478;2023-04-15T00:30:23;55.45;;;41.95;;
44120;SDS011;29783;52.504;13.478;2023-04-15T00:32:49;53.13;;;41.03;;
44120;SDS011;29783;52.504;13.478;2023-04-15T00:35:15;48.28;;;40.50;;
44120;SDS011;29783;52.504;13.478;2023-04-15T00:37:41;53.50;;;41.15;;
44120;SDS011;29783;52.504;13.478;2023-04-15T00:40:11;54.13;;;40.33;;
44120;SDS011;29783;52.504;13.478;2023-04-15T00:42:37;55.10;;;43.40;;
44120;SDS011;29783;52.504;13.478;2023-04-15T00:45:03;53.83;;;41.22;;
44120;SDS011;29783;52.504;13.478;2023-04-15T00:47:29;56.58;;;43.83;;
44120;SDS011;29783;52.504;13.478;2023-04-15T00:49:57;52.67;;;43.47;;
44120;SDS011;29783;52.504;13.478;2023-04-15T00:52:23;53.33;;;40.40;;
44120;SDS011;29783;52.504;13.478;2023-04-15T00:54:49;55.55;;;42.88;;
44120;SDS011;29783;52.504;13.478;2023-04-15T00:57:16;49.55;;;40.88;;
44120;SDS011;29783;52.504;13.478;2023-04-15T00:59:51;53.88;;;42.40;;
44120;SDS011;29783;52.504;13.478;2023-04-15T01:02:17;56.22;;;43.90;;
44120;SDS011;29783;52.504;13.478;2023-04-15T01:04:44;58.90;;;43.58;;
44120;SDS011;29783;52.504;13.478;2023-04-15T01:07:11;58.35;;;45.50;;
44120;SDS011;29783;52.504;13.478;2023-04-15T01:09:36;53.00;;;41.72;;
44120;SDS011;29783;52.504;13.478;2023-04-15T01:12:02;54.28;;;42.88;;
44120;SDS011;29783;52.504;13.478;2023-04-15T01:14:29;52.53;;;41.70;;
44120;SDS011;29783;52.504;13.478;2023-04-15T01:16:54;58.25;;;43.65;;
44120;SDS011;29783;52.504;13.478;2023-04-15T01:19:21;56.22;;;42.85;;
44120;SDS011;29783;52.504;13.478;2023-04-15T01:21:47;61.67;;;45.08;;
44120;SDS011;29783;52.504;13.478;2023-04-15T01:24:13;56.88;;;42.95;;
44120;SDS011;29783;52.504;13.478;2023-04-15T01:26:43;67.32;;;46.83;;
44120;SDS011;29783;52.504;13.478;2023-04-15T01:29:30;54.78;;;40.30;;
44120;SDS011;29783;52.504;13.478;2023-04-15T01:32:02;58.03;;;44.10;;
44120;SDS011;29783;52.504;13.478;2023-04-15T01:34:29;62.80;;;44.03;;
44120;SDS011;29783;52.504;13.478;2023-04-15T01:36:57;59.90;;;43.53;;
44120;SDS011;29783;52.504;13.478;2023-04-15T01:39:22;60.40;;;46.28;;
44120;SDS011;29783;52.504;13.478;2023-04-15T01:41:48;57.67;;;43.30;;
44120;SDS011;29783;52.504;13.478;2023-04-15T01:44:14;61.08;;;45.22;;
44120;SDS011;29783;52.504;13.478;2023-04-15T01:46:40;60.88;;;42.50;;
44120;SDS011;29783;52.504;13.478;2023-04-15T01:49:06;61.72;;;44.47;;
44120;SDS011;29783;52.504;13.478;2023-04-15T01:51:35;60.85;;;42.80;;
44120;SDS011;29783;52.504;13.478;2023-04-15T01:54:01;58.33;;;40.42;;
44120;SDS011;29783;52.504;13.478;2023-04-15T01:56:28;62.20;;;43.72;;
44120;SDS011;29783;52.504;13.478;2023-04-15T01:58:53;56.70;;;43.20;;
44120;SDS011;29783;52.504;13.478;2023-04-15T02:01:20;56.72;;;42.72;;
44120;SDS011;29783;52.504;13.478;2023-04-15T02:03:46;63.25;;;45.53;;
44120;SDS011;29783;52.504;13.478;2023-04-15T02:06:12;62.25;;;43.80;;
44120;SDS011;29783;52.504;13.478;2023-04-15T02:08:38;61.35;;;45.47;;
44120;SDS011;29783;52.504;13.478;2023-04-15T02:11:03;63.17;;;42.45;;
44120;SDS011;29783;52.504;13.478;2023-04-15T02:13:30;59.25;;;43.40;;
44120;SDS011;29783;52.504;13.478;2023-04-15T02:15:55;63.47;;;42.92;;
44120;SDS011;29783;52.504;13.478;2023-04-15T02:18:21;59.03;;;44.45;;
44120;SDS011;29783;52.504;13.478;2023-04-15T02:20:47;57.45;;;42.63;;
44120;SDS011;29783;52.504;13.478;2023-04-15T02:23:12;59.15;;;43.30;;
44120;SDS011;29783;52.504;13.478;2023-04-15T02:25:39;55.22;;;43.55;;
44120;SDS011;29783;52.504;13.478;2023-04-15T02:28:05;54.30;;;43.65;;
44120;SDS011;29783;52.504;13.478;2023-04-15T02:30:31;62.60;;;44.22;;
44120;SDS011;29783;52.504;13.478;2023-04-15T02:32:59;57.28;;;41.17;;
44120;SDS011;29783;52.504;13.478;2023-04-15T02:35:25;64.65;;;43.22;;
44120;SDS011;29783;52.504;13.478;2023-04-15T02:37:51;60.42;;;41.95;;
44120;SDS011;29783;52.504;13.478;2023-04-15T02:40:17;58.85;;;43.50;;
44120;SDS011;29783;52.504;13.478;2023-04-15T02:42:45;57.22;;;41.33;;
44120;SDS011;29783;52.504;13.478;2023-04-15T02:45:11;60.22;;;40.40;;
44120;SDS011;29783;52.504;13.478;2023-04-15T02:47:55;63.40;;;41.88;;
44120;SDS011;29783;52.504;13.478;2023-04-15T02:50:21;54.30;;;39.38;;
44120;SDS011;29783;52.504;13.478;2023-04-15T02:52:48;53.22;;;40.33;;
44120;SDS011;29783;52.504;13.478;2023-04-15T02:55:14;55.63;;;40.33;;
44120;SDS011;29783;52.504;13.478;2023-04-15T02:57:42;54.78;;;40.45;;
44120;SDS011;29783;52.504;13.478;2023-04-15T03:00:08;57.80;;;40.95;;
44120;SDS011;29783;52.504;13.478;2023-04-15T03:02:36;57.00;;;40.28;;
44120;SDS011;29783;52.504;13.478;2023-04-15T03:05:04;58.03;;;41.25;;
44120;SDS011;29783;52.504;13.478;2023-04-15T03:07:31;55.58;;;41.08;;
44120;SDS011;29783;52.504;13.478;2023-04-15T03:09:56;55.47;;;39.60;;
44120;SDS011;29783;52.504;13.478;2023-04-15T03:12:23;52.95;;;38.42;;
44120;SDS011;29783;52.504;13.478;2023-04-15T03:14:49;56.22;;;37.85;;
44120;SDS011;29783;52.504;13.478;2023-04-15T03:17:15;51.13;;;38.78;;
44120;SDS011;29783;52.504;13.478;2023-04-15T03:19:42;48.70;;;36.83;;
44120;SDS011;29783;52.504;13.478;2023-04-15T03:22:09;48.75;;;37.67;;
44120;SDS011;29783;52.504;13.478;2023-04-15T03:24:36;51.42;;;37.83;;
44120;SDS011;29783;52.504;13.478;2023-04-15T03:27:02;51.20;;;37.25;;
44120;SDS011;29783;52.504;13.478;2023-04-15T03:29:27;48.13;;;36.25;;
44120;SDS011;29783;52.504;13.478;2023-04-15T03:31:56;51.83;;;36.47;;
44120;SDS011;29783;52.504;13.478;2023-04-15T03:34:23;56.65;;;38.50;;
44120;SDS011;29783;52.504;13.478;2023-04-15T03:36:49;43.88;;;36.50;;
44120;SDS011;29783;52.504;13.478;2023-04-15T03:39:15;45.80;;;32.78;;
44120;SDS011;29783;52.504;13.478;2023-04-15T03:41:42;42.38;;;33.72;;
44120;SDS011;29783;52.504;13.478;2023-04-15T04:07:16;43.05;;;28.17;;
44120;SDS011;29783;52.504;13.478;2023-04-15T04:09:42;41.63;;;28.52;;
44120;SDS011;29783;52.504;13.478;2023-04-15T04:12:08;33.92;;;27.77;;
44120;SDS011;29783;52.504;13.478;2023-04-15T04:14:34;41.17;;;28.63;;
44120;SDS011;29783;52.504;13.478;2023-04-15T04:16:59;39.20;;;27.80;;
44120;SDS011;29783;52.504;13.478;2023-04-15T04:19:25;35.67;;;27.50;;
44120;SDS011;29783;52.504;13.478;2023-04-15T04:21:51;34.75;;;27.38;;
44120;SDS011;29783;52.504;13.478;2023-04-15T04:24:20;31.08;;;26.48;;
44120;SDS011;29783;52.504;13.478;2023-04-15T04:26:47;38.20;;;25.00;;
44120;SDS011;29783;52.504;13.478;2023-04-15T04:29:12;39.10;;;25.00;;
44120;SDS011;29783;52.504;13.478;2023-04-15T04:31:39;33.85;;;25.02;;
44120;SDS011;29783;52.504;13.478;2023-04-15T04:34:06;30.30;;;24.23;;
44120;SDS011;29783;52.504;13.478;2023-04-15T04:36:32;28.75;;;23.60;;
44120;SDS011;29783;52.504;13.478;2023-04-15T04:39:00;30.73;;;24.05;;
44120;SDS011;29783;52.504;13.478;2023-04-15T04:41:26;31.25;;;23.90;;
44120;SDS011;29783;52.504;13.478;2023-04-15T05:18:54;23.83;;;18.40;;
44120;SDS011;29783;52.504;13.478;2023-04-15T05:21:20;23.77;;;18.35;;
44120;SDS011;29783;52.504;13.478;2023-04-15T05:23:47;22.65;;;17.58;;
44120;SDS011;29783;52.504;13.478;2023-04-15T05:26:12;25.08;;;18.10;;
44120;SDS011;29783;52.504;13.478;2023-04-15T05:28:38;21.05;;;17.30;;
44120;SDS011;29783;52.504;13.478;2023-04-15T05:31:05;25.30;;;16.35;;
44120;SDS011;29783;52.504;13.478;2023-04-15T05:33:31;20.27;;;15.50;;
44120;SDS011;29783;52.504;13.478;2023-04-15T05:35:58;23.75;;;16.95;;
44120;SDS011;29783;52.504;13.478;2023-04-15T05:38:23;20.33;;;16.17;;
44120;SDS011;29783;52.504;13.478;2023-04-15T05:40:52;17.45;;;15.60;;
44120;SDS011;29783;52.504;13.478;2023-04-15T05:43:21;22.88;;;15.18;;
44120;SDS011;29783;52.504;13.478;2023-04-15T05:45:46;17.33;;;14.88;;
44120;SDS011;29783;52.504;13.478;2023-04-15T05:48:12;19.40;;;13.95;;
44120;SDS011;29783;52.504;13.478;2023-04-15T05:50:39;17.65;;;12.73;;
44120;SDS011;29783;52.504;13.478;2023-04-15T05:53:06;18.67;;;14.45;;
44120;SDS011;29783;52.504;13.478;2023-04-15T05:55:37;21.92;;;14.15;;
44120;SDS011;29783;52.504;13.478;2023-04-15T05:58:03;16.30;;;13.75;;
44120;SDS011;29783;52.504;13.478;2023-04-15T06:00:31;17.55;;;13.55;;
44120;SDS011;29783;52.504;13.478;2023-04-15T06:02:57;15.95;;;12.05;;
44120;SDS011;29783;52.504;13.478;2023-04-15T06:05:23;18.60;;;13.07;;
44120;SDS011;29783;52.504;13.478;2023-04-15T06:07:48;16.85;;;12.60;;
44120;SDS011;29783;52.504;13.478;2023-04-15T06:10:17;15.02;;;12.52;;
44120;SDS011;29783;52.504;13.478;2023-04-15T06:12:44;19.13;;;11.82;;
44120;SDS011;29783;52.504;13.478;2023-04-15T06:15:12;18.90;;;12.73;;
44120;SDS011;29783;52.504;13.478;2023-04-15T06:17:38;17.25;;;12.65;;
44120;SDS011;29783;52.504;13.478;2023-04-15T06:20:06;19.13;;;11.88;;
44120;SDS011;29783;52.504;13.478;2023-04-15T06:22:32;17.20;;;11.90;;
44120;SDS011;29783;52.504;13.478;2023-04-15T06:24:58;16.00;;;12.57;;
44120;SDS011;29783;52.504;13.478;2023-04-15T06:27:23;15.70;;;12.05;;
44120;SDS011;29783;52.504;13.478;2023-04-15T06:29:49;20.88;;;11.55;;
44120;SDS011;29783;52.504;13.478;2023-04-15T06:32:15;19.17;;;11.57;;
44120;SDS011;29783;52.504;13.478;2023-04-15T06:34:41;13.45;;;10.73;;
44120;SDS011;29783;52.504;13.478;2023-04-15T06:37:06;17.35;;;10.80;;
44120;SDS011;29783;52.504;13.478;2023-04-15T06:39:35;12.95;;;10.70;;
44120;SDS011;29783;52.504;13.478;2023-04-15T06:42:01;13.30;;;9.75;;
44120;SDS011;29783;52.504;13.478;2023-04-15T06:54:52;14.48;;;10.73;;
44120;SDS011;29783;52.504;13.478;2023-04-15T06:57:18;14.43;;;9.27;;
44120;SDS011;29783;52.504;13.478;2023-04-15T06:59:44;12.70;;;8.70;;
44120;SDS011;29783;52.504;13.478;2023-04-15T07:02:11;16.15;;;8.82;;
44120;SDS011;29783;52.504;13.478;2023-04-15T07:04:45;10.85;;;8.65;;
44120;SDS011;29783;52.504;13.478;2023-04-15T07:07:14;13.35;;;8.18;;
44120;SDS011;29783;52.504;13.478;2023-04-15T07:09:41;11.82;;;8.43;;
44120;SDS011;29783;52.504;13.478;2023-04-15T07:12:07;17.70;;;8.45;;
44120;SDS011;29783;52.504;13.478;2023-04-15T07:14:33;12.68;;;8.38;;
44120;SDS011;29783;52.504;13.478;2023-04-15T07:16:58;13.13;;;8.68;;
44120;SDS011;29783;52.504;13.478;2023-04-15T07:19:26;12.75;;;8.48;;
44120;SDS011;29783;52.504;13.478;2023-04-15T07:21:52;9.32;;;7.38;;
44120;SDS011;29783;52.504;13.478;2023-04-15T07:24:17;11.40;;;8.82;;
44120;SDS011;29783;52.504;13.478;2023-04-15T07:26:44;12.27;;;8.35;;
44120;SDS011;29783;52.504;13.478;2023-04-15T07:29:11;13.40;;;8.32;;
44120;SDS011;29783;52.504;13.478;2023-04-15T07:31:36;12.27;;;8.25;;
44120;SDS011;29783;52.504;13.478;2023-04-15T07:34:02;12.38;;;9.13;;
44120;SDS011;29783;52.504;13.478;2023-04-15T07:36:29;10.30;;;8.10;;
44120;SDS011;29783;52.504;13.478;2023-04-15T07:38:55;14.18;;;9.00;;
44120;SDS011;29783;52.504;13.478;2023-04-15T07:41:22;12.02;;;8.27;;
44120;SDS011;29783;52.504;13.478;2023-04-15T07:51:34;10.90;;;8.95;;
44120;SDS011;29783;52.504;13.478;2023-04-15T07:54:01;12.27;;;8.77;;
44120;SDS011;29783;52.504;13.478;2023-04-15T07:56:28;12.35;;;9.40;;
44120;SDS011;29783;52.504;13.478;2023-04-15T07:58:55;18.73;;;9.52;;
44120;SDS011;29783;52.504;13.478;2023-04-15T08:01:22;12.43;;;8.88;;
44120;SDS011;29783;52.504;13.478;2023-04-15T08:03:49;9.98;;;8.80;;
44120;SDS011;29783;52.504;13.478;2023-04-15T08:06:19;14.82;;;8.50;;
44120;SDS011;29783;52.504;13.478;2023-04-15T08:08:46;12.18;;;9.57;;
44120;SDS011;29783;52.504;13.478;2023-04-15T08:11:13;12.35;;;9.30;;
44120;SDS011;29783;52.504;13.478;2023-04-15T08:13:39;11.88;;;9.55;;
44120;SDS011;29783;52.504;13.478;2023-04-15T08:18:46;15.95;;;10.13;;
44120;SDS011;29783;52.504;13.478;2023-04-15T08:21:13;11.35;;;10.00;;
44120;SDS011;29783;52.504;13.478;2023-04-15T08:23:40;13.95;;;9.30;;
44120;SDS011;29783;52.504;13.478;2023-04-15T08:26:07;11.38;;;10.07;;
44120;SDS011;29783;52.504;13.478;2023-04-15T08:28:34;13.65;;;9.75;;
44120;SDS011;29783;52.504;13.478;2023-04-15T08:31:02;10.57;;;9.10;;
44120;SDS011;29783;52.504;13.478;2023-04-15T08:33:34;12.27;;;9.40;;
44120;SDS011;29783;52.504;13.478;2023-04-15T08:35:59;12.57;;;10.23;;
44120;SDS011;29783;52.504;13.478;2023-04-15T08:38:26;15.43;;;9.90;;
44120;SDS011;29783;52.504;13.478;2023-04-15T08:40:52;11.93;;;10.70;;
44120;SDS011;29783;52.504;13.478;2023-04-15T08:43:21;14.40;;;10.02;;
44120;SDS011;29783;52.504;13.478;2023-04-15T09:08:29;14.20;;;9.82;;
44120;SDS011;29783;52.504;13.478;2023-04-15T09:10:55;11.80;;;9.48;;
44120;SDS011;29783;52.504;13.478;2023-04-15T09:13:21;11.68;;;9.90;;
44120;SDS011;29783;52.504;13.478;2023-04-15T09:15:47;11.57;;;9.57;;
44120;SDS011;29783;52.504;13.478;2023-04-15T09:18:15;11.68;;;10.07;;
44120;SDS011;29783;52.504;13.478;2023-04-15T09:20:52;15.43;;;9.80;;
44120;SDS011;29783;52.504;13.478;2023-04-15T09:23:18;11.45;;;9.55;;
44120;SDS011;29783;52.504;13.478;2023-04-15T09:25:44;14.35;;;9.85;;
44120;SDS011;29783;52.504;13.478;2023-04-15T09:28:10;13.15;;;8.60;;
44120;SDS011;29783;52.504;13.478;2023-04-15T09:30:36;16.67;;;9.88;;
44120;SDS011;29783;52.504;13.478;2023-04-15T09:33:02;10.38;;;8.88;;
44120;SDS011;29783;52.504;13.478;2023-04-15T09:35:32;14.57;;;9.23;;
44120;SDS011;29783;52.504;13.478;2023-04-15T09:38:06;10.13;;;8.48;;
44120;SDS011;29783;52.504;13.478;2023-04-15T09:40:41;13.82;;;9.15;;
44120;SDS011;29783;52.504;13.478;2023-04-15T09:43:07;10.25;;;8.68;;
44120;SDS011;29783;52.504;13.478;2023-04-15T09:48:16;9.80;;;8.70;;
44120;SDS011;29783;52.504;13.478;2023-04-15T09:50:46;10.40;;;8.82;;
44120;SDS011;29783;52.504;13.478;2023-04-15T09:53:19;9.70;;;8.70;;
44120;SDS011;29783;52.504;13.478;2023-04-15T09:55:50;10.45;;;9.35;;
44120;SDS011;29783;52.504;13.478;2023-04-15T09:58:23;12.25;;;8.88;;
44120;SDS011;29783;52.504;13.478;2023-04-15T10:00:52;10.13;;;8.80;;
44120;SDS011;29783;52.504;13.478;2023-04-15T10:03:25;10.15;;;8.82;;
44120;SDS011;29783;52.504;13.478;2023-04-15T10:05:53;14.52;;;9.07;;
44120;SDS011;29783;52.504;13.478;2023-04-15T10:08:23;9.50;;;8.50;;
44120;SDS011;29783;52.504;13.478;2023-04-15T10:10:54;10.13;;;8.95;;
44120;SDS011;29783;52.504;13.478;2023-04-15T10:13:21;10.07;;;8.93;;
44120;SDS011;29783;52.504;13.478;2023-04-15T10:15:56;12.52;;;9.13;;
44120;SDS011;29783;52.504;13.478;2023-04-15T10:18:39;9.50;;;8.35;;
44120;SDS011;29783;52.504;13.478;2023-04-15T10:21:07;10.13;;;8.95;;
44120;SDS011;29783;52.504;13.478;2023-04-15T10:23:39;9.48;;;8.48;;
44120;SDS011;29783;52.504;13.478;2023-04-15T10:26:05;10.15;;;7.95;;
44120;SDS011;29783;52.504;13.478;2023-04-15T10:28:31;9.73;;;7.80;;
44120;SDS011;29783;52.504;13.478;2023-04-15T10:30:57;11.38;;;8.95;;
44120;SDS011;29783;52.504;13.478;2023-04-15T10:33:24;9.88;;;8.02;;
44120;SDS011;29783;52.504;13.478;2023-04-15T10:35:50;9.52;;;8.52;;
44120;SDS011;29783;52.504;13.478;2023-04-15T10:38:34;10.65;;;8.38;;
44120;SDS011;29783;52.504;13.478;2023-04-15T10:41:20;11.32;;;8.27;;
44120;SDS011;29783;52.504;13.478;2023-04-15T11:06:50;8.90;;;8.00;;
44120;SDS011;29783;52.504;13.478;2023-04-15T11:09:32;9.02;;;7.70;;
44120;SDS011;29783;52.504;13.478;2023-04-15T11:12:04;9.25;;;7.65;;
44120;SDS011;29783;52.504;13.478;2023-04-15T11:14:40;8.40;;;7.47;;
44120;SDS011;29783;52.504;13.478;2023-04-15T11:17:07;12.95;;;7.35;;
44120;SDS011;29783;52.504;13.478;2023-04-15T11:19:36;8.38;;;7.45;;
44120;SDS011;29783;52.504;13.478;2023-04-15T11:22:06;10.13;;;6.88;;
44120;SDS011;29783;52.504;13.478;2023-04-15T11:24:35;8.48;;;7.05;;
44120;SDS011;29783;52.504;13.478;2023-04-15T11:27:18;9.65;;;7.15;;
44120;SDS011;29783;52.504;13.478;2023-04-15T11:29:45;8.52;;;6.70;;
44120;SDS011;29783;52.504;13.478;2023-04-15T11:32:11;16.23;;;7.32;;
44120;SDS011;29783;52.504;13.478;2023-04-15T11:34:36;12.32;;;7.82;;
44120;SDS011;29783;52.504;13.478;2023-04-15T11:37:03;7.97;;;7.15;;
44120;SDS011;29783;52.504;13.478;2023-04-15T11:39:30;9.65;;;7.80;;
44120;SDS011;29783;52.504;13.478;2023-04-15T11:41:56;9.07;;;7.28;;
44120;SDS011;29783;52.504;13.478;2023-04-15T11:44:22;9.13;;;7.35;;
44120;SDS011;29783;52.504;13.478;2023-04-15T11:46:47;8.63;;;7.70;;
44120;SDS011;29783;52.504;13.478;2023-04-15T11:49:27;7.78;;;6.97;;
44120;SDS011;29783;52.504;13.478;2023-04-15T11:51:53;9.38;;;6.63;;
44120;SDS011;29783;52.504;13.478;2023-04-15T11:54:19;9.80;;;7.40;;
44120;SDS011;29783;52.504;13.478;2023-04-15T11:56:49;8.45;;;7.13;;
44120;SDS011;29783;52.504;13.478;2023-04-15T11:59:18;13.23;;;7.90;;
44120;SDS011;29783;52.504;13.478;2023-04-15T12:01:48;7.82;;;7.03;;
44120;SDS011;29783;52.504;13.478;2023-04-15T12:04:25;9.00;;;7.78;;
44120;SDS011;29783;52.504;13.478;2023-04-15T12:06:51;9.73;;;7.45;;
44120;SDS011;29783;52.504;13.478;2023-04-15T12:09:17;9.95;;;7.53;;
44120;SDS011;29783;52.504;13.478;2023-04-15T12:11:44;13.77;;;9.48;;
44120;SDS011;29783;52.504;13.478;2023-04-15T12:16:49;9.55;;;7.15;;
44120;SDS011;29783;52.504;13.478;2023-04-15T12:19:22;7.97;;;7.18;;
44120;SDS011;29783;52.504;13.478;2023-04-15T12:22:01;9.65;;;6.50;;
44120;SDS011;29783;52.504;13.478;2023-04-15T12:24:32;9.70;;;6.90;;
44120;SDS011;29783;52.504;13.478;2023-04-15T12:29:33;7.15;;;6.25;;
44120;SDS011;29783;52.504;13.478;2023-04-15T12:32:07;7.93;;;6.28;;
44120;SDS011;29783;52.504;13.478;2023-04-15T12:34:37;7.18;;;6.13;;
44120;SDS011;29783;52.504;13.478;2023-04-15T12:37:05;8.20;;;6.78;;
44120;SDS011;29783;52.504;13.478;2023-04-15T12:39:34;7.18;;;5.95;;
44120;SDS011;29783;52.504;13.478;2023-04-15T12:42:01;9.02;;;5.93;;
44120;SDS011;29783;52.504;13.478;2023-04-15T13:10:42;6.13;;;4.72;;
44120;SDS011;29783;52.504;13.478;2023-04-15T13:13:11;5.40;;;4.90;;
44120;SDS011;29783;52.504;13.478;2023-04-15T13:15:38;5.18;;;4.65;;
44120;SDS011;29783;52.504;13.478;2023-04-15T13:18:05;5.38;;;4.88;;
44120;SDS011;29783;52.504;13.478;2023-04-15T13:20:31;6.68;;;5.70;;
44120;SDS011;29783;52.504;13.478;2023-04-15T13:22:57;6.63;;;5.60;;
44120;SDS011;29783;52.504;13.478;2023-04-15T13:25:24;5.68;;;5.10;;
44120;SDS011;29783;52.504;13.478;2023-04-15T13:27:51;6.30;;;4.90;;
44120;SDS011;29783;52.504;13.478;2023-04-15T13:30:17;5.72;;;4.60;;
44120;SDS011;29783;52.504;13.478;2023-04-15T13:32:43;4.20;;;3.80;;
44120;SDS011;29783;52.504;13.478;2023-04-15T13:35:08;6.13;;;4.70;;
44120;SDS011;29783;52.504;13.478;2023-04-15T13:37:34;5.35;;;4.35;;
44120;SDS011;29783;52.504;13.478;2023-04-15T13:40:00;5.50;;;3.42;;
44120;SDS011;29783;52.504;13.478;2023-04-15T13:42:26;5.03;;;3.90;;
44120;SDS011;29783;52.504;13.478;2023-04-15T13:57:52;3.55;;;3.13;;
44120;SDS011;29783;52.504;13.478;2023-04-15T14:00:18;3.88;;;3.47;;
44120;SDS011;29783;52.504;13.478;2023-04-15T14:02:44;5.85;;;3.40;;
44120;SDS011;29783;52.504;13.478;2023-04-15T14:05:10;4.20;;;3.58;;
44120;SDS011;29783;52.504;13.478;2023-04-15T14:07:36;4.00;;;3.60;;
44120;SDS011;29783;52.504;13.478;2023-04-15T14:10:02;5.20;;;4.10;;
44120;SDS011;29783;52.504;13.478;2023-04-15T14:12:29;5.32;;;3.90;;
44120;SDS011;29783;52.504;13.478;2023-04-15T14:14:56;4.38;;;3.97;;
44120;SDS011;29783;52.504;13.478;2023-04-15T14:17:22;7.70;;;3.72;;
44120;SDS011;29783;52.504;13.478;2023-04-15T14:19:50;5.72;;;3.80;;
44120;SDS011;29783;52.504;13.478;2023-04-15T14:22:17;5.00;;;3.47;;
44120;SDS011;29783;52.504;13.478;2023-04-15T14:24:43;5.43;;;4.40;;
44120;SDS011;29783;52.504;13.478;2023-04-15T14:27:09;4.20;;;3.75;;
44120;SDS011;29783;52.504;13.478;2023-04-15T14:29:36;4.03;;;3.72;;
44120;SDS011;29783;52.504;13.478;2023-04-15T14:32:02;4.43;;;4.00;;
44120;SDS011;29783;52.504;13.478;2023-04-15T14:34:29;7.30;;;4.38;;
44120;SDS011;29783;52.504;13.478;2023-04-15T14:36:55;4.22;;;3.85;;
44120;SDS011;29783;52.504;13.478;2023-04-15T14:39:26;4.25;;;3.85;;
44120;SDS011;29783;52.504;13.478;2023-04-15T14:41:52;4.35;;;3.67;;
44120;SDS011;29783;52.504;13.478;2023-04-15T14:57:15;8.95;;;4.10;;
44120;SDS011;29783;52.504;13.478;2023-04-15T14:59:42;4.95;;;4.20;;
44120;SDS011;29783;52.504;13.478;2023-04-15T15:02:09;6.00;;;4.63;;
44120;SDS011;29783;52.504;13.478;2023-04-15T15:04:36;6.50;;;4.72;;
44120;SDS011;29783;52.504;13.478;2023-04-15T15:07:02;8.40;;;5.45;;
44120;SDS011;29783;52.504;13.478;2023-04-15T15:09:27;5.45;;;4.50;;
44120;SDS011;29783;52.504;13.478;2023-04-15T15:11:54;6.13;;;4.95;;
44120;SDS011;29783;52.504;13.478;2023-04-15T15:14:22;5.82;;;5.22;;
44120;SDS011;29783;52.504;13.478;2023-04-15T15:16:51;10.52;;;7.57;;
44120;SDS011;29783;52.504;13.478;2023-04-15T15:19:18;6.13;;;5.22;;
44120;SDS011;29783;52.504;13.478;2023-04-15T15:21:44;6.65;;;4.70;;
44120;SDS011;29783;52.504;13.478;2023-04-15T15:24:09;6.15;;;4.53;;
44120;SDS011;29783;52.504;13.478;2023-04-15T15:26:35;5.60;;;4.40;;
44120;SDS011;29783;52.504;13.478;2023-04-15T15:29:01;6.68;;;4.43;;
44120;SDS011;29783;52.504;13.478;2023-04-15T15:31:26;6.03;;;4.80;;
44120;SDS011;29783;52.504;13.478;2023-04-15T15:33:52;9.18;;;4.82;;
44120;SDS011;29783;52.504;13.478;2023-04-15T15:36:18;7.35;;;4.53;;
44120;SDS011;29783;52.504;13.478;2023-04-15T15:38:43;8.20;;;3.88;;
44120;SDS011;29783;52.504;13.478;2023-04-15T15:41:09;4.68;;;3.88;;
44120;SDS011;29783;52.504;13.478;2023-04-15T15:59:15;4.45;;;3.03;;
44120;SDS011;29783;52.504;13.478;2023-04-15T16:01:42;4.68;;;3.47;;
44120;SDS011;29783;52.504;13.478;2023-04-15T16:04:10;3.65;;;3.35;;
44120;SDS011;29783;52.504;13.478;2023-04-15T16:06:37;4.45;;;3.75;;
44120;SDS011;29783;52.504;13.478;2023-04-15T16:09:02;4.38;;;3.33;;
44120;SDS011;29783;52.504;13.478;2023-04-15T16:11:29;4.55;;;3.70;;
44120;SDS011;29783;52.504;13.478;2023-04-15T16:13:55;5.15;;;3.90;;
44120;SDS011;29783;52.504;13.478;2023-04-15T16:16:20;8.38;;;5.68;;
44120;SDS011;29783;52.504;13.478;2023-04-15T16:18:47;4.25;;;3.85;;
44120;SDS011;29783;52.504;13.478;2023-04-15T16:21:13;5.22;;;4.40;;
44120;SDS011;29783;52.504;13.478;2023-04-15T16:23:39;5.43;;;4.90;;
44120;SDS011;29783;52.504;13.478;2023-04-15T16:26:05;7.43;;;3.95;;
44120;SDS011;29783;52.504;13.478;2023-04-15T16:28:30;5.07;;;4.00;;
44120;SDS011;29783;52.504;13.478;2023-04-15T16:30:56;4.53;;;3.78;;
44120;SDS011;29783;52.504;13.478;2023-04-15T16:33:22;7.35;;;3.47;;
44120;SDS011;29783;52.504;13.478;2023-04-15T16:35:48;6.75;;;3.38;;
44120;SDS011;29783;52.504;13.478;2023-04-15T16:38:13;4.50;;;3.70;;
44120;SDS011;29783;52.504;13.478;2023-04-15T16:40:40;5.07;;;3.50;;
44120;SDS011;29783;52.504;13.478;2023-04-15T16:43:07;5.95;;;5.00;;
44120;SDS011;29783;52.504;13.478;2023-04-15T17:09:55;4.10;;;3.70;;
44120;SDS011;29783;52.504;13.478;2023-04-15T17:12:20;4.20;;;3.40;;
44120;SDS011;29783;52.504;13.478;2023-04-15T17:14:46;4.35;;;3.40;;
44120;SDS011;29783;52.504;13.478;2023-04-15T17:17:12;4.78;;;4.28;;
44120;SDS011;29783;52.504;13.478;2023-04-15T17:19:37;4.78;;;4.13;;
44120;SDS011;29783;52.504;13.478;2023-04-15T17:22:03;5.30;;;4.22;;
44120;SDS011;29783;52.504;13.478;2023-04-15T17:24:29;6.05;;;3.88;;
44120;SDS011;29783;52.504;13.478;2023-04-15T17:26:55;6.45;;;4.40;;
44120;SDS011;29783;52.504;13.478;2023-04-15T17:29:22;5.63;;;4.20;;
44120;SDS011;29783;52.504;13.478;2023-04-15T17:31:48;4.60;;;4.05;;
44120;SDS011;29783;52.504;13.478;2023-04-15T17:34:13;3.78;;;3.47;;
44120;SDS011;29783;52.504;13.478;2023-04-15T17:36:39;4.60;;;3.72;;
44120;SDS011;29783;52.504;13.478;2023-04-15T17:39:05;4.40;;;3.83;;
44120;SDS011;29783;52.504;13.478;2023-04-15T17:41:31;4.07;;;3.60;;
44120;SDS011;29783;52.504;13.478;2023-04-15T18:53:51;3.78;;;3.38;;
44120;SDS011;29783;52.504;13.478;2023-04-15T18:56:18;4.50;;;3.72;;
44120;SDS011;29783;52.504;13.478;2023-04-15T18:58:44;4.45;;;3.97;;
44120;SDS011;29783;52.504;13.478;2023-04-15T19:01:10;4.30;;;3.42;;
44120;SDS011;29783;52.504;13.478;2023-04-15T19:03:35;4.65;;;3.83;;
44120;SDS011;29783;52.504;13.478;2023-04-15T19:06:01;7.10;;;3.95;;
44120;SDS011;29783;52.504;13.478;2023-04-15T19:08:26;5.30;;;4.20;;
44120;SDS011;29783;52.504;13.478;2023-04-15T19:10:53;6.25;;;5.43;;
44120;SDS011;29783;52.504;13.478;2023-04-15T19:13:20;11.32;;;6.88;;
44120;SDS011;29783;52.504;13.478;2023-04-15T19:15:51;7.45;;;6.28;;